This is the latest recevied weather packets stored in our database for station/object KG7FOQ-13. If no packets are shown the sender has not sent any weather packets the latest 10 day(s).
| Time | Temp. | Humidity | Pressure | Rain* | Wind** | Luminosity | Snow |
|---|---|---|---|---|---|---|---|
| 1778152388 | 14.44° C | 42% | 1015.2 hPa | 0 mm | - | - | - |
| 1778152087 | 14.44° C | 42% | 1015.2 hPa | 0 mm | - | - | - |
| 1778151787 | 14.44° C | 41% | 1015.2 hPa | 0 mm | - | - | - |
| 1778151486 | 14.44° C | 42% | 1015.2 hPa | 0 mm | - | - | - |
| 1778151186 | 14.44° C | 43% | 1015.2 hPa | 0 mm | - | - | - |
| 1778150885 | 13.89° C | 43% | 1015.1 hPa | 0 mm | - | - | - |
| 1778150585 | 14.44° C | 43% | 1015.1 hPa | 0 mm | - | - | - |
| 1778150284 | 13.89° C | 46% | 1015.1 hPa | 0 mm | - | - | - |
| 1778149984 | 13.33° C | 51% | 1015.1 hPa | 0 mm | - | - | - |
| 1778149683 | 12.78° C | 53% | 1015.1 hPa | 0 mm | - | - | - |
| 1778149383 | 12.78° C | 54% | 1015 hPa | 0 mm | - | - | - |
| 1778149082 | 12.78° C | 54% | 1015 hPa | 0 mm | - | - | - |
| 1778148782 | 12.78° C | 55% | 1015.1 hPa | 0 mm | - | - | - |
| 1778148481 | 12.78° C | 55% | 1015.1 hPa | 0 mm | - | - | - |
| 1778148181 | 12.22° C | 57% | 1015.1 hPa | 0 mm | - | - | - |
| 1778147880 | 11.67° C | 59% | 1015.1 hPa | 0 mm | - | - | - |
| 1778147580 | 11.67° C | 60% | 1015.1 hPa | 0 mm | - | - | - |
| 1778147279 | 12.22° C | 56% | 1015.1 hPa | 0 mm | - | - | - |
| 1778146979 | 12.78° C | 54% | 1015.1 hPa | 0 mm | - | - | - |
| 1778146678 | 13.33° C | 51% | 1015.1 hPa | 0 mm | - | - | - |
| 1778146077 | 13.33° C | 53% | 1015.1 hPa | 0 mm | - | - | - |
| 1778145776 | 13.33° C | 51% | 1015.3 hPa | 0 mm | - | - | - |
| 1778145476 | 13.89° C | 48% | 1015.2 hPa | 0 mm | - | - | - |
| 1778145175 | 15° C | 44% | 1015.1 hPa | 0 mm | - | - | - |
| 1778144875 | 15.56° C | 42% | 1014.9 hPa | 0 mm | - | - | - |
* Rain latest hour (hover to see other rain measurements)
** Current wind speed in m/s (hover to see current wind gust speed)